Terminal Aerodrome Forecast
Issued by NWS

Home | Current Version | Previous Version | Text Only | Print | Product List | Glossary On
Versions: 1 2 3 4 5 6 7 8 9 10 11 12 13 14 15 16
000
FTUS44 KLZK 212016 AAA
TAFLIT
TAF AMD
KLIT 212016Z 2120/2218 20008KT P6SM SCT040 BKN250
     FM212200 25006KT P6SM FEW050 BKN250
     FM220300 35008KT P6SM SKC
     FM221500 02011KT P6SM SKC=

USA.gov is the U.S. government's official web portal to all federal, state and local government web resources and services.